Time;durP1;ratioP1;P1;durP2;ratioP2;P2;SDS_P1;SDS_P2;PMS_P1;PMS_P2;Temp;Humidity;BMP_temperature;BMP_pressure;BME280_temperature;BME280_humidity;BME280_pressure;Samples;Min_cycle;Max_cycle;Signal;HPM_P1;HPM_P2
2022/01/21 00:02:55;;;;;;;5.80;2.47;;;0.40;99.90;;;;;;4822632;29;20246;-82
2022/01/21 00:06:06;;;;;;;5.40;2.50;;;0.00;99.90;;;;;;4865956;29;20204;-82
2022/01/21 00:12:56;;;;;;;;;;;;;;;;;;;;;
2022/01/21 00:33:16;;;;;;;5.03;3.40;;;-0.60;99.90;;;;;;4864329;29;20200;-82
2022/01/21 00:36:23;;;;;;;5.03;3.30;;;-0.20;99.90;;;;;;4869380;29;20298;-82
2022/01/21 00:38:59;;;;;;;8.07;3.20;;;-0.50;99.90;;;;;;4859536;29;20204;-82
2022/01/21 00:45:48;;;;;;;;;;;;;;;;;;;;;
2022/01/21 00:48:35;;;;;;;6.43;2.87;;;0.00;99.90;;;;;;4978160;28;20263;-82
2022/01/21 00:51:12;;;;;;;6.87;2.83;;;0.70;99.90;;;;;;4998196;28;20209;-82
2022/01/21 00:57:15;;;;;;;6.83;2.77;;;0.10;99.90;;;;;;5019561;28;20195;-82
2022/01/21 00:59:41;;;;;;;5.97;2.87;;;-0.20;99.90;;;;;;5020149;28;20171;-83
2022/01/21 01:02:10;;;;;;;5.77;2.50;;;0.60;99.90;;;;;;5019200;28;20167;-82
2022/01/21 01:04:44;;;;;;;5.33;2.90;;;0.40;99.90;;;;;;5017939;28;20183;-82
2022/01/21 01:07:13;;;;;;;7.47;2.60;;;0.30;99.90;;;;;;5018604;28;20206;-82
2022/01/21 01:10:11;;;;;;;4.70;2.30;;;0.40;99.90;;;;;;5021551;28;20174;-82
2022/01/21 01:29:23;;;;;;;8.13;3.00;;;0.80;99.90;;;;;;4947703;28;20194;-82
2022/01/21 01:36:15;;;;;;;8.67;2.73;;;-0.10;99.90;;;;;;4964764;28;20261;-82
2022/01/21 01:50:40;;;;;;;4.77;2.40;;;0.30;99.90;;;;;;4947288;28;20783;-82
2022/01/21 01:59:49;;;;;;;6.37;2.87;;;0.20;99.90;;;;;;5002793;28;20194;-83
2022/01/21 02:03:22;;;;;;;;;;;;;;;;;;;;;
2022/01/21 02:06:19;;;;;;;7.03;2.80;;;0.00;99.90;;;;;;4981015;28;20244;-82
2022/01/21 02:13:02;;;;;;;;;;;;;;;;;;;;;
2022/01/21 02:23:36;;;;;;;7.00;3.03;;;0.30;99.90;;;;;;4941060;29;20213;-82
2022/01/21 02:26:59;;;;;;;;;;;;;;;;;;;;;
2022/01/21 02:30:33;;;;;;;5.67;3.20;;;0.00;99.90;;;;;;5040230;28;20265;-83
2022/01/21 02:33:45;;;;;;;7.57;3.00;;;0.40;99.90;;;;;;4957891;29;20244;-83
2022/01/21 02:36:32;;;;;;;5.20;2.67;;;0.40;99.90;;;;;;4943635;29;20760;-83
2022/01/21 02:39:21;;;;;;;7.67;2.73;;;1.30;99.90;;;;;;5012551;28;20212;-83
2022/01/21 02:41:47;;;;;;;7.70;3.23;;;0.50;99.90;;;;;;4998270;28;20261;-83
2022/01/21 02:44:44;;;;;;;5.17;2.47;;;0.70;99.90;;;;;;5017110;28;20692;-82
2022/01/21 02:47:43;;;;;;;6.27;2.43;;;0.40;99.90;;;;;;4996590;28;20251;-83
2022/01/21 03:02:06;;;;;;;;;;;;;;;;;;;;;
2022/01/21 03:05:34;;;;;;;8.40;3.17;;;0.10;99.90;;;;;;4825564;29;20327;-83
2022/01/21 03:15:42;;;;;;;6.00;2.50;;;-0.30;99.90;;;;;;4863539;29;20294;-83
2022/01/21 03:22:12;;;;;;;7.33;2.87;;;-0.30;99.90;;;;;;4923444;29;20184;-83
2022/01/21 03:24:44;;;;;;;6.27;3.10;;;0.10;99.90;;;;;;4935544;29;20687;-83
2022/01/21 03:27:18;;;;;;;6.87;3.13;;;1.10;99.90;;;;;;4938848;29;20201;-82
2022/01/21 03:29:53;;;;;;;5.93;2.50;;;0.70;99.90;;;;;;4943091;28;20201;-82
2022/01/21 03:33:17;;;;;;;7.73;3.07;;;0.10;99.90;;;;;;5018294;28;20212;-83
2022/01/21 03:36:29;;;;;;;6.17;2.50;;;-0.30;99.90;;;;;;5017504;28;20203;-81
2022/01/21 03:42:55;;;;;;;5.93;2.50;;;1.00;99.90;;;;;;4980880;28;20190;-82
2022/01/21 03:49:22;;;;;;;7.77;3.07;;;-0.20;99.90;;;;;;4957626;29;20187;-83
2022/01/21 03:54:43;;;;;;;7.40;2.77;;;0.10;99.90;;;;;;4974072;28;20207;-82
2022/01/21 03:57:27;;;;;;;7.23;2.93;;;0.40;99.90;;;;;;4975408;28;20211;-83
2022/01/21 04:07:26;;;;;;;6.07;2.90;;;0.30;99.90;;;;;;4934478;28;20222;-83
2022/01/21 04:20:58;;;;;;;;;;;;;;;;;;;;;
2022/01/21 04:34:30;;;;;;;8.90;2.80;;;0.50;99.90;;;;;;4972309;28;20276;-82
2022/01/21 04:37:13;;;;;;;4.00;2.40;;;0.30;99.90;;;;;;4944746;29;20219;-82
2022/01/21 04:50:32;;;;;;;;;;;;;;;;;;;;;
2022/01/21 04:57:30;;;;;;;;;;;;;;;;;;;;;
2022/01/21 05:00:33;;;;;;;;;;;;;;;;;;;;;
2022/01/21 05:03:15;;;;;;;5.33;2.37;;;0.90;99.90;;;;;;4969167;28;20258;-83
2022/01/21 05:06:12;;;;;;;8.17;4.73;;;-0.20;99.90;;;;;;5020654;28;20203;-83
2022/01/21 05:08:53;;;;;;;10.13;3.20;;;-0.20;99.90;;;;;;5007043;28;20172;-83
2022/01/21 05:15:07;;;;;;;10.53;3.40;;;-0.50;99.90;;;;;;4982608;28;20226;-81
2022/01/21 05:17:45;;;;;;;6.13;2.43;;;0.10;99.90;;;;;;5020321;28;20206;-83
2022/01/21 05:20:21;;;;;;;6.53;3.20;;;-0.60;99.90;;;;;;5019642;28;20182;-82
2022/01/21 05:23:08;;;;;;;6.17;2.70;;;-0.70;99.90;;;;;;5020757;28;20232;-83
2022/01/21 05:25:36;;;;;;;11.50;3.27;;;-0.60;99.90;;;;;;5019303;28;20186;-83
2022/01/21 05:28:01;;;;;;;9.63;2.80;;;-0.80;99.90;;;;;;5003473;28;20210;-82
2022/01/21 05:33:48;;;;;;;7.33;2.93;;;-0.60;99.90;;;;;;5021348;28;20197;-82
2022/01/21 05:36:40;;;;;;;;;;;;;;;;;;;;;
2022/01/21 05:40:19;;;;;;;5.97;3.20;;;0.10;99.90;;;;;;5023047;28;20253;-82
2022/01/21 05:54:12;;;;;;;;;;;;;;;;;;;;;
2022/01/21 05:57:37;;;;;;;6.13;3.20;;;-0.50;99.90;;;;;;4932281;29;20292;-82
2022/01/21 06:00:18;;;;;;;8.50;3.23;;;-0.40;99.90;;;;;;4887448;29;20183;-82
2022/01/21 06:13:19;;;;;;;;;;;;;;;;;;;;;
2022/01/21 06:15:56;;;;;;;;;;;;;;;;;;;;;
2022/01/21 06:18:52;;;;;;;6.30;2.87;;;-0.30;99.90;;;;;;5023371;28;20265;-82
2022/01/21 06:21:52;;;;;;;4.70;2.97;;;0.20;99.90;;;;;;5023023;28;20608;-83
2022/01/21 06:24:56;;;;;;;3.67;2.90;;;0.20;99.90;;;;;;5023006;28;20182;-83
2022/01/21 06:28:15;;;;;;;;;;;;;;;;;;;;;
2022/01/21 06:30:53;;;;;;;9.23;2.50;;;0.30;99.90;;;;;;5019919;28;20271;-83
2022/01/21 06:33:22;;;;;;;6.60;2.67;;;-0.30;99.90;;;;;;5010897;28;20219;-83
2022/01/21 06:35:57;;;;;;;4.20;2.97;;;-0.70;99.90;;;;;;5014149;28;20268;-82
2022/01/21 06:39:09;;;;;;;6.53;2.60;;;0.20;99.90;;;;;;5021720;28;20209;-83
2022/01/21 06:45:37;;;;;;;6.50;4.27;;;-0.60;99.90;;;;;;5013060;28;20183;-83
2022/01/21 06:48:06;;;;;;;11.47;3.30;;;0.30;99.90;;;;;;4942979;28;20194;-82
2022/01/21 06:50:38;;;;;;;4.70;2.97;;;0.30;99.90;;;;;;5000036;28;20182;-83
2022/01/21 06:53:04;;;;;;;7.83;2.90;;;0.30;99.90;;;;;;5014639;28;20170;-84
2022/01/21 06:55:31;;;;;;;6.93;2.70;;;0.00;99.90;;;;;;5005282;28;20191;-83
2022/01/21 06:57:59;;;;;;;5.97;3.07;;;-0.20;99.90;;;;;;5006608;28;20232;-83
2022/01/21 07:00:25;;;;;;;9.57;3.53;;;0.20;99.90;;;;;;5010037;28;20182;-84
2022/01/21 07:02:53;;;;;;;5.77;3.13;;;-0.10;99.90;;;;;;5006933;28;20190;-83
2022/01/21 07:05:22;;;;;;;7.53;3.00;;;0.00;99.90;;;;;;5005437;28;20557;-84
2022/01/21 07:07:48;;;;;;;5.30;2.63;;;-0.20;99.90;;;;;;5007430;28;20178;-83
2022/01/21 07:10:15;;;;;;;5.80;3.03;;;0.10;99.90;;;;;;5006195;28;20541;-83
2022/01/21 07:12:43;;;;;;;9.33;3.47;;;-0.10;99.90;;;;;;5005426;28;20171;-83
2022/01/21 07:15:10;;;;;;;6.33;3.50;;;-0.10;99.90;;;;;;5005628;28;20210;-84
2022/01/21 07:17:37;;;;;;;6.83;3.20;;;0.00;99.90;;;;;;5004595;28;20226;-83
2022/01/21 07:20:05;;;;;;;8.90;3.93;;;0.00;99.90;;;;;;5005621;28;20229;-83
2022/01/21 07:22:31;;;;;;;7.93;3.00;;;0.10;99.90;;;;;;5004462;28;20175;-85
2022/01/21 07:24:57;;;;;;;6.73;3.47;;;0.10;99.90;;;;;;5005012;28;20179;-84
2022/01/21 07:27:26;;;;;;;4.73;3.10;;;0.20;99.90;;;;;;5004472;28;20249;-85
2022/01/21 07:29:51;;;;;;;4.13;3.70;;;0.20;99.90;;;;;;5004628;28;20248;-85
2022/01/21 07:32:17;;;;;;;5.70;3.60;;;0.20;99.90;;;;;;5004064;28;20171;-82
2022/01/21 07:34:43;;;;;;;4.03;2.70;;;0.20;99.90;;;;;;5003080;28;20199;-83
2022/01/21 07:37:09;;;;;;;6.23;3.63;;;0.20;99.90;;;;;;5003562;28;20650;-82
2022/01/21 07:39:35;;;;;;;9.40;3.93;;;0.30;99.90;;;;;;5003226;28;20198;-82
2022/01/21 07:42:00;;;;;;;10.37;3.60;;;0.30;99.90;;;;;;5002893;28;20179;-82
2022/01/21 07:44:26;;;;;;;8.93;4.00;;;0.50;99.90;;;;;;5001076;28;20673;-83
2022/01/21 07:46:52;;;;;;;7.87;3.70;;;0.30;99.90;;;;;;5027013;28;20267;-81
2022/01/21 07:49:18;;;;;;;7.70;3.83;;;0.30;99.90;;;;;;5032580;28;20175;-82
2022/01/21 07:51:44;;;;;;;5.67;3.30;;;0.30;99.90;;;;;;5015140;28;20189;-82
2022/01/21 07:54:11;;;;;;;9.50;3.83;;;0.80;99.90;;;;;;5016817;28;20187;-81
2022/01/21 07:56:37;;;;;;;11.03;3.30;;;0.30;99.90;;;;;;5033674;28;20223;-81
2022/01/21 07:59:06;;;;;;;5.30;2.70;;;1.10;99.90;;;;;;5012653;28;20171;-82
2022/01/21 08:01:32;;;;;;;3.87;2.97;;;0.20;99.90;;;;;;5004381;28;20648;-83
2022/01/21 08:03:58;;;;;;;5.23;2.73;;;0.30;99.90;;;;;;5005383;28;20210;-83
2022/01/21 08:06:24;;;;;;;6.70;3.17;;;0.50;99.90;;;;;;5009649;28;20195;-82
2022/01/21 08:08:50;;;;;;;10.67;3.73;;;0.30;99.90;;;;;;5005781;28;20717;-83
2022/01/21 08:11:19;;;;;;;8.20;3.57;;;0.30;99.90;;;;;;5024977;28;20214;-82
2022/01/21 08:13:45;;;;;;;8.50;4.67;;;1.00;99.90;;;;;;5007938;28;20199;-82
2022/01/21 08:16:11;;;;;;;11.20;4.33;;;0.30;99.90;;;;;;5007461;28;20194;-81
2022/01/21 08:18:36;;;;;;;9.83;4.67;;;0.90;99.90;;;;;;5006737;28;20258;-81
2022/01/21 08:21:06;;;;;;;8.57;5.00;;;0.30;99.90;;;;;;5005958;28;20174;-80
2022/01/21 08:23:32;;;;;;;12.77;4.60;;;0.40;99.90;;;;;;5006253;28;20633;-82
2022/01/21 08:25:58;;;;;;;5.47;3.80;;;1.20;99.90;;;;;;5005287;28;20207;-81
2022/01/21 08:28:24;;;;;;;10.27;4.13;;;0.50;99.90;;;;;;5009821;28;20179;-82
2022/01/21 08:34:34;;;;;;;;;;;;;;;;;;;;;
2022/01/21 08:37:27;;;;;;;5.60;2.83;;;0.50;99.90;;;;;;5021555;28;20262;-81
2022/01/21 08:40:27;;;;;;;6.90;3.60;;;0.50;99.90;;;;;;5005394;28;20515;-81
2022/01/21 08:43:13;;;;;;;13.53;3.63;;;0.60;99.90;;;;;;5004132;28;20185;-81
2022/01/21 08:50:00;;;;;;;6.93;3.10;;;0.60;99.90;;;;;;4972276;29;20183;-81
2022/01/21 08:56:22;;;;;;;5.63;3.40;;;0.60;99.90;;;;;;4979856;28;20253;-81
2022/01/21 09:01:54;;;;;;;4.90;3.10;;;0.80;99.90;;;;;;4976683;28;20201;-80
2022/01/21 09:04:23;;;;;;;9.53;4.00;;;0.70;99.90;;;;;;4978568;28;20184;-83
2022/01/21 09:07:16;;;;;;;7.63;3.43;;;0.70;99.90;;;;;;5004667;28;20212;-82
2022/01/21 09:13:42;;;;;;;;;;;;;;;;;;;;;
2022/01/21 09:23:06;;;;;;;18.13;4.60;;;0.90;99.90;;;;;;4922684;29;20206;-82
2022/01/21 09:29:36;;;;;;;7.47;3.30;;;1.00;99.90;;;;;;5002783;28;20184;-82
2022/01/21 09:35:55;;;;;;;11.83;3.57;;;1.10;99.90;;;;;;4948466;29;20673;-82
2022/01/21 09:39:11;;;;;;;16.97;3.67;;;1.30;99.90;;;;;;4944717;29;20201;-83
2022/01/21 09:41:39;;;;;;;7.13;2.47;;;1.70;99.90;;;;;;4907715;29;20190;-82
2022/01/21 09:48:28;;;;;;;4.37;2.17;;;2.30;99.90;;;;;;4926515;29;20221;-82
2022/01/21 09:50:57;;;;;;;9.10;2.23;;;1.60;99.90;;;;;;4921569;29;20696;-82
2022/01/21 09:54:14;;;;;;;11.33;2.73;;;1.60;99.90;;;;;;4939855;29;20360;-82
2022/01/21 10:03:19;;;;;;;8.40;2.60;;;2.00;99.90;;;;;;4963357;28;20207;-80
2022/01/21 10:10:06;;;;;;;;;;;;;;;;;;;;;
2022/01/21 10:23:31;;;;;;;8.53;2.73;;;2.60;99.90;;;;;;4971634;28;20202;-81
2022/01/21 10:29:24;;;;;;;16.13;4.37;;;2.20;99.90;;;;;;5003255;28;20239;-82
2022/01/21 10:32:09;;;;;;;29.27;9.67;;;3.00;99.90;;;;;;4988351;28;20206;-83
2022/01/21 10:34:54;;;;;;;5.23;1.90;;;1.80;99.90;;;;;;4999713;28;20195;-83
2022/01/21 10:38:18;;;;;;;;;;;;;;;;;;;;;
2022/01/21 10:40:44;;;;;;;75.43;26.17;;;2.20;99.90;;;;;;4944512;29;20288;-83
2022/01/21 10:44:04;;;;;;;22.63;8.37;;;2.30;99.90;;;;;;5003875;28;20240;-82
2022/01/21 10:46:30;;;;;;;8.03;3.20;;;1.80;99.90;;;;;;4993462;28;20231;-83
2022/01/21 10:49:25;;;;;;;3.80;1.97;;;2.80;99.90;;;;;;5010918;28;20187;-83
2022/01/21 10:56:19;;;;;;;4.90;2.10;;;3.00;99.90;;;;;;4922724;29;20736;-83
2022/01/21 10:58:51;;;;;;;6.70;1.63;;;2.90;99.90;;;;;;4933353;29;20193;-82
2022/01/21 11:01:50;;;;;;;;;;;;;;;;;;;;;
2022/01/21 11:11:23;;;;;;;6.87;1.70;;;3.50;99.90;;;;;;4939851;28;20719;-79
2022/01/21 11:14:34;;;;;;;6.37;1.77;;;4.00;99.90;;;;;;5004782;28;20259;-81
2022/01/21 11:17:17;;;;;;;17.27;7.33;;;3.30;99.90;;;;;;5012291;28;20282;-82
2022/01/21 11:20:16;;;;;;;5.77;2.00;;;3.20;99.90;;;;;;5002870;28;20155;-81
2022/01/21 11:23:00;;;;;;;80.67;45.90;;;3.00;99.90;;;;;;5011571;28;20179;-80
2022/01/21 11:26:08;;;;;;;8.33;3.97;;;2.80;99.90;;;;;;5000612;28;20176;-82
2022/01/21 11:28:50;;;;;;;9.57;2.10;;;2.70;99.90;;;;;;5024703;28;20189;-84
2022/01/21 11:31:27;;;;;;;8.33;2.47;;;3.80;99.90;;;;;;5016025;28;20209;-81
2022/01/21 11:33:53;;;;;;;7.63;2.13;;;3.80;99.90;;;;;;5022346;28;21135;-83
2022/01/21 11:37:04;;;;;;;5.50;2.70;;;4.00;99.90;;;;;;5003524;28;20229;-83
2022/01/21 11:40:09;;;;;;;;;;;;;;;;;;;;;
2022/01/21 11:49:00;;;;;;;5.53;1.87;;;3.40;99.90;;;;;;4942290;29;20189;-82
2022/01/21 11:52:09;;;;;;;8.00;1.93;;;4.30;99.90;;;;;;4943957;29;20246;-81
2022/01/21 11:54:37;;;;;;;10.00;2.00;;;3.30;99.90;;;;;;4906895;29;20203;-82
2022/01/21 11:57:05;;;;;;;8.43;2.90;;;3.20;99.90;;;;;;4949408;29;20219;-82
2022/01/21 12:00:02;;;;;;;;;;;;;;;;;;;;;
2022/01/21 12:03:23;;;;;;;3.90;1.43;;;3.30;99.90;;;;;;4966678;29;20205;-82
2022/01/21 12:05:53;;;;;;;3.03;1.10;;;3.30;99.90;;;;;;4971320;28;20237;-83
2022/01/21 12:09:04;;;;;;;9.37;1.73;;;3.40;99.90;;;;;;5000378;28;20197;-83
2022/01/21 12:15:02;;;;;;;6.23;1.80;;;3.30;99.90;;;;;;4993502;28;21105;-83
2022/01/21 12:17:45;;;;;;;8.23;1.23;;;3.30;99.90;;;;;;4996563;28;20208;-83
2022/01/21 12:20:29;;;;;;;4.30;1.10;;;3.30;99.90;;;;;;5018014;28;20185;-82
2022/01/21 12:23:16;;;;;;;2.40;1.07;;;3.40;99.90;;;;;;5003472;28;20652;-82
2022/01/21 12:26:19;;;;;;;8.20;1.30;;;3.20;99.90;;;;;;5017751;28;20223;-82
2022/01/21 12:28:54;;;;;;;22.77;17.80;;;3.50;99.90;;;;;;4993943;28;20188;-82
2022/01/21 12:31:38;;;;;;;4.53;1.63;;;3.70;99.90;;;;;;5020332;28;20203;-81
2022/01/21 12:34:15;;;;;;;1.60;0.73;;;3.50;99.90;;;;;;5020035;28;20197;-82
2022/01/21 12:36:51;;;;;;;2.40;0.80;;;3.80;99.90;;;;;;5004452;28;20212;-83
2022/01/21 12:39:40;;;;;;;3.60;1.00;;;3.90;99.90;;;;;;4995580;28;20184;-82
2022/01/21 12:42:25;;;;;;;7.63;3.47;;;3.30;99.90;;;;;;4999439;28;20210;-82
2022/01/21 12:45:15;;;;;;;5.40;1.07;;;3.30;99.90;;;;;;5017022;28;20185;-82
2022/01/21 12:47:45;;;;;;;3.17;1.13;;;3.30;99.90;;;;;;4996590;28;20303;-82
2022/01/21 12:50:35;;;;;;;3.47;1.00;;;3.50;99.90;;;;;;5008458;28;20185;-83
2022/01/21 12:53:33;;;;;;;3.50;0.60;;;3.50;99.90;;;;;;5022595;28;20181;-79
2022/01/21 12:56:06;;;;;;;1.57;0.70;;;3.50;99.90;;;;;;5013581;28;20206;-80
2022/01/21 12:58:48;;;;;;;1.77;0.73;;;3.50;99.90;;;;;;5032828;28;20171;-79
2022/01/21 13:01:16;;;;;;;2.60;0.70;;;3.50;99.90;;;;;;5031483;28;20176;-81
2022/01/21 13:04:17;;;;;;;2.73;0.80;;;4.20;99.90;;;;;;5031760;28;20198;-84
2022/01/21 13:07:43;;;;;;;6.13;3.13;;;3.70;99.90;;;;;;5005697;28;20204;-84
2022/01/21 13:10:27;;;;;;;5.33;1.10;;;3.40;99.90;;;;;;4976542;28;20219;-83
2022/01/21 13:13:23;;;;;;;6.00;1.30;;;4.10;99.90;;;;;;5004670;28;20276;-82
2022/01/21 13:15:55;;;;;;;2.83;1.00;;;3.60;99.90;;;;;;5006135;28;20207;-83
2022/01/21 13:18:36;;;;;;;2.17;0.77;;;3.50;99.90;;;;;;5003146;28;20221;-83
2022/01/21 13:21:07;;;;;;;5.87;1.43;;;3.60;99.90;;;;;;5005292;28;20200;-82
2022/01/21 13:24:02;;;;;;;3.10;1.10;;;4.40;99.90;;;;;;5026679;28;20172;-82
2022/01/21 13:26:38;;;;;;;2.97;1.20;;;3.40;99.90;;;;;;5022148;28;20198;-81
2022/01/21 13:29:51;;;;;;;3.57;1.73;;;3.90;99.90;;;;;;5016441;28;20204;-82
2022/01/21 13:35:49;;;;;;;5.43;1.30;;;3.30;99.90;;;;;;4881066;29;20197;-82
2022/01/21 13:39:25;;;;;;;2.57;1.30;;;3.50;99.90;;;;;;4949081;28;20196;-82
2022/01/21 13:42:04;;;;;;;;;;;;;;;;;;;;;
2022/01/21 13:45:33;;;;;;;5.23;0.80;;;4.10;99.90;;;;;;5022184;28;20211;-82
2022/01/21 13:48:01;;;;;;;3.50;0.93;;;3.50;99.90;;;;;;5017955;28;20200;-82
2022/01/21 13:51:04;;;;;;;;;;;;;;;;;;;;;
2022/01/21 13:56:56;;;;;;;3.43;0.93;;;3.50;99.90;;;;;;4940737;29;20193;-81
2022/01/21 13:59:25;;;;;;;3.73;1.00;;;3.50;99.90;;;;;;4983440;28;20192;-82
2022/01/21 14:02:16;;;;;;;1.23;0.50;;;3.40;99.90;;;;;;5006447;28;20186;-81
2022/01/21 14:05:26;;;;;;;4.67;0.60;;;3.60;99.90;;;;;;5028104;28;20183;-82
2022/01/21 14:09:09;;;;;;;4.30;0.77;;;3.50;99.90;;;;;;5021030;28;20219;-81
2022/01/21 14:11:45;;;;;;;2.37;0.43;;;2.50;99.90;;;;;;4940932;29;20195;-82
2022/01/21 14:14:15;;;;;;;1.40;0.30;;;3.60;99.90;;;;;;4944417;29;20560;-82
2022/01/21 14:16:47;;;;;;;1.63;0.60;;;4.10;99.90;;;;;;4994897;28;20242;-81
2022/01/21 14:19:17;;;;;;;2.17;0.90;;;4.30;99.90;;;;;;5020102;28;20259;-82
2022/01/21 14:21:48;;;;;;;3.33;0.90;;;3.70;99.90;;;;;;5021175;28;20215;-83
2022/01/21 14:24:16;;;;;;;2.23;1.10;;;3.70;99.90;;;;;;5023243;28;20185;-82
2022/01/21 14:26:50;;;;;;;3.63;0.40;;;3.60;99.90;;;;;;5025495;28;20220;-83
2022/01/21 14:29:26;;;;;;;3.10;0.60;;;4.50;99.90;;;;;;5022024;28;20193;-83
2022/01/21 14:31:52;;;;;;;0.70;0.50;;;4.30;99.90;;;;;;5022767;28;20314;-81
2022/01/21 14:34:19;;;;;;;4.23;0.87;;;4.00;99.90;;;;;;5020336;28;20290;-83
2022/01/21 14:36:58;;;;;;;0.80;0.60;;;3.90;99.90;;;;;;5003259;28;20295;-82
2022/01/21 14:39:26;;;;;;;1.47;0.63;;;3.70;99.90;;;;;;5003486;28;20177;-82
2022/01/21 14:41:55;;;;;;;5.70;0.57;;;3.40;99.90;;;;;;5008683;28;20240;-82
2022/01/21 14:44:50;;;;;;;1.47;0.60;;;4.30;99.90;;;;;;5010762;28;20212;-82
2022/01/21 14:47:42;;;;;;;1.20;0.50;;;3.70;99.90;;;;;;5018175;28;20224;-82
2022/01/21 14:50:46;;;;;;;1.63;0.70;;;3.80;99.90;;;;;;5009919;28;20263;-81
2022/01/21 14:53:42;;;;;;;2.30;0.50;;;3.70;99.90;;;;;;5007266;28;20191;-81
2022/01/21 14:56:28;;;;;;;1.77;0.60;;;3.70;99.90;;;;;;5007112;28;20663;-83
2022/01/21 14:59:19;;;;;;;2.97;0.70;;;3.60;99.90;;;;;;5006195;28;20181;-83
2022/01/21 15:02:07;;;;;;;1.13;0.73;;;3.60;99.90;;;;;;5019649;28;20184;-82
2022/01/21 15:04:37;;;;;;;1.57;0.50;;;3.60;99.90;;;;;;5020880;28;20180;-82
2022/01/21 15:07:25;;;;;;;2.17;0.60;;;4.10;99.90;;;;;;5002127;28;20207;-83
2022/01/21 15:09:53;;;;;;;2.33;0.40;;;3.60;99.90;;;;;;4998492;28;20182;-82
2022/01/21 15:15:53;;;;;;;4.03;1.83;;;3.60;99.90;;;;;;5018276;28;20243;-83
2022/01/21 15:18:20;;;;;;;6.80;3.67;;;3.60;99.90;;;;;;5020899;28;20199;-81
2022/01/21 15:20:49;;;;;;;4.17;1.90;;;3.90;99.90;;;;;;4998183;28;20644;-82
2022/01/21 15:23:21;;;;;;;3.80;2.27;;;3.60;99.90;;;;;;5017152;28;20204;-82
2022/01/21 15:25:52;;;;;;;5.87;4.20;;;3.60;99.90;;;;;;4999564;28;20245;-82
2022/01/21 15:28:19;;;;;;;2.63;1.80;;;3.50;99.90;;;;;;4998711;28;20177;-81
2022/01/21 15:30:47;;;;;;;2.67;1.90;;;3.60;99.90;;;;;;5000417;28;20303;-81
2022/01/21 15:33:16;;;;;;;2.27;1.30;;;3.80;99.90;;;;;;5002657;28;20249;-82
2022/01/21 15:35:43;;;;;;;3.33;0.97;;;3.90;99.90;;;;;;5005362;28;20207;-82
2022/01/21 15:38:13;;;;;;;4.17;1.17;;;3.30;99.90;;;;;;5021146;28;20184;-82
2022/01/21 15:40:41;;;;;;;1.57;0.80;;;3.40;99.90;;;;;;5001056;28;20285;-81
2022/01/21 15:43:12;;;;;;;2.07;1.03;;;3.40;99.90;;;;;;5017796;28;20190;-81
2022/01/21 15:45:56;;;;;;;2.03;0.87;;;3.40;99.90;;;;;;4997818;28;20178;-80
2022/01/21 15:48:28;;;;;;;3.23;1.10;;;3.70;99.90;;;;;;5013144;28;20246;-81
2022/01/21 15:51:12;;;;;;;4.23;1.10;;;3.90;99.90;;;;;;5013334;28;20184;-82
2022/01/21 15:53:38;;;;;;;4.03;1.23;;;3.10;99.90;;;;;;5018842;28;20283;-80
2022/01/21 15:56:04;;;;;;;2.93;1.00;;;3.70;99.90;;;;;;5002532;28;20258;-82
2022/01/21 15:58:30;;;;;;;7.40;1.37;;;3.30;99.90;;;;;;4999356;28;20194;-79
2022/01/21 16:00:56;;;;;;;2.47;1.40;;;3.20;99.90;;;;;;5012740;28;20181;-80
2022/01/21 16:03:24;;;;;;;3.80;1.53;;;3.20;99.90;;;;;;4993022;28;20193;-80
2022/01/21 16:05:50;;;;;;;4.13;1.50;;;3.70;99.90;;;;;;5016400;28;20207;-81
2022/01/21 16:08:16;;;;;;;3.37;1.60;;;3.10;99.90;;;;;;5010019;28;20188;-80
2022/01/21 16:10:42;;;;;;;2.43;1.30;;;3.10;99.90;;;;;;5011708;28;20262;-80
2022/01/21 16:13:07;;;;;;;3.07;1.33;;;3.10;99.90;;;;;;5014740;28;20176;-82
2022/01/21 16:15:34;;;;;;;5.13;2.00;;;3.10;99.90;;;;;;5016485;28;20229;-80
2022/01/21 16:18:00;;;;;;;3.97;1.80;;;3.10;99.90;;;;;;5014600;28;20250;-82
2022/01/21 16:20:27;;;;;;;4.37;2.10;;;3.20;99.90;;;;;;5018325;28;20914;-81
2022/01/21 16:22:53;;;;;;;6.17;2.20;;;3.10;99.90;;;;;;5010816;28;20186;-79
2022/01/21 16:25:19;;;;;;;3.77;2.33;;;3.00;99.90;;;;;;5013154;28;20192;-80
2022/01/21 16:27:46;;;;;;;3.67;2.37;;;3.00;99.90;;;;;;5005173;28;20188;-80
2022/01/21 16:30:12;;;;;;;6.50;2.80;;;3.00;99.90;;;;;;5018930;28;20199;-80
2022/01/21 16:32:38;;;;;;;6.33;3.03;;;3.00;99.90;;;;;;5016932;28;20569;-80
2022/01/21 16:35:06;;;;;;;6.17;3.30;;;3.00;99.90;;;;;;5016310;28;20208;-80
2022/01/21 16:37:32;;;;;;;4.80;3.27;;;2.90;99.90;;;;;;5014387;28;20237;-79
2022/01/21 16:40:03;;;;;;;5.63;3.30;;;2.90;99.90;;;;;;5017192;28;20183;-79
2022/01/21 16:42:33;;;;;;;6.20;3.70;;;3.10;99.90;;;;;;5011571;28;20707;-80
2022/01/21 16:45:02;;;;;;;7.13;3.40;;;2.80;99.90;;;;;;5013900;28;20193;-80
2022/01/21 16:47:28;;;;;;;4.50;3.20;;;2.80;99.90;;;;;;5016532;28;20212;-81
2022/01/21 16:49:54;;;;;;;3.80;2.73;;;2.80;99.90;;;;;;5013085;28;20192;-81
2022/01/21 16:52:19;;;;;;;5.43;3.17;;;2.80;99.90;;;;;;5013523;28;20180;-81
2022/01/21 16:54:45;;;;;;;5.27;3.10;;;3.10;99.90;;;;;;5015751;28;20228;-81
2022/01/21 16:57:12;;;;;;;6.47;3.10;;;2.80;99.90;;;;;;5018005;28;20203;-80
2022/01/21 16:59:38;;;;;;;4.73;3.07;;;2.80;99.90;;;;;;5016111;28;20194;-81
2022/01/21 17:02:03;;;;;;;5.47;3.20;;;2.80;99.90;;;;;;5014095;28;20234;-80
2022/01/21 17:04:29;;;;;;;6.63;2.77;;;2.80;99.90;;;;;;5000519;28;20181;-80
2022/01/21 17:06:55;;;;;;;7.67;3.33;;;2.80;99.90;;;;;;4995524;28;20255;-81
2022/01/21 17:09:20;;;;;;;3.60;2.17;;;2.80;99.90;;;;;;4994180;28;20207;-81
2022/01/21 17:11:46;;;;;;;4.13;2.13;;;2.80;99.90;;;;;;5018465;28;20677;-80
2022/01/21 17:14:11;;;;;;;4.93;2.13;;;2.70;99.90;;;;;;5013633;28;20239;-82
2022/01/21 17:16:37;;;;;;;4.77;2.47;;;2.80;99.90;;;;;;5016718;28;20674;-80
2022/01/21 17:19:04;;;;;;;4.87;2.30;;;2.90;99.90;;;;;;5011361;28;20221;-80
2022/01/21 17:21:33;;;;;;;8.17;3.17;;;2.70;99.90;;;;;;5012419;28;20164;-81
2022/01/21 17:23:58;;;;;;;4.77;2.03;;;2.70;99.90;;;;;;5013817;28;20216;-80
2022/01/21 17:26:24;;;;;;;5.50;2.10;;;2.60;99.90;;;;;;5014903;28;20264;-80
2022/01/21 17:28:50;;;;;;;5.97;2.53;;;2.60;99.90;;;;;;4993821;28;20283;-80
2022/01/21 17:31:16;;;;;;;5.33;2.50;;;2.60;99.90;;;;;;4997217;28;20212;-81
2022/01/21 17:33:43;;;;;;;6.77;2.83;;;2.60;99.90;;;;;;5008565;28;20212;-81
2022/01/21 17:36:09;;;;;;;5.30;3.00;;;2.70;99.90;;;;;;5012944;28;20201;-81
2022/01/21 17:38:35;;;;;;;7.73;3.40;;;3.10;99.90;;;;;;5015176;28;20203;-80
2022/01/21 17:41:01;;;;;;;4.73;3.10;;;2.70;99.90;;;;;;4995600;28;20208;-80
2022/01/21 17:43:27;;;;;;;7.37;3.70;;;2.70;99.90;;;;;;5015210;28;20171;-81
2022/01/21 17:45:53;;;;;;;6.77;3.57;;;2.60;99.90;;;;;;5009891;28;20540;-81
2022/01/21 17:48:19;;;;;;;8.20;4.13;;;2.90;99.90;;;;;;5013778;28;20213;-81
2022/01/21 17:50:46;;;;;;;8.40;3.60;;;2.60;99.90;;;;;;5016505;28;20188;-81
2022/01/21 17:53:17;;;;;;;9.13;3.87;;;2.60;99.90;;;;;;5015276;28;20185;-80
2022/01/21 17:55:43;;;;;;;7.70;3.87;;;2.60;99.90;;;;;;5013323;28;20203;-81
2022/01/21 17:58:09;;;;;;;7.90;3.10;;;3.20;99.90;;;;;;4999794;28;20655;-80
2022/01/21 18:00:36;;;;;;;7.70;3.67;;;3.40;99.90;;;;;;5020324;28;20180;-80
2022/01/21 18:03:01;;;;;;;6.40;3.50;;;2.40;99.90;;;;;;5015038;28;20188;-79
2022/01/21 18:05:28;;;;;;;6.53;3.93;;;2.30;99.90;;;;;;5014895;28;20221;-79
2022/01/21 18:07:56;;;;;;;10.40;3.30;;;2.30;99.90;;;;;;5007276;28;20229;-81
2022/01/21 18:10:30;;;;;;;6.90;3.70;;;2.30;99.90;;;;;;5017542;28;20677;-81
2022/01/21 18:12:56;;;;;;;6.87;3.30;;;2.30;99.90;;;;;;4997346;28;20215;-81
2022/01/21 18:15:23;;;;;;;4.87;3.07;;;2.30;99.90;;;;;;5017057;28;20578;-79
2022/01/21 18:17:49;;;;;;;6.83;3.17;;;2.30;99.90;;;;;;5000813;28;20181;-81
2022/01/21 18:20:15;;;;;;;6.00;3.10;;;2.30;99.90;;;;;;5016311;28;20178;-81
2022/01/21 18:22:41;;;;;;;5.07;3.17;;;2.30;99.90;;;;;;5007741;28;20207;-80
2022/01/21 18:25:07;;;;;;;5.33;3.03;;;2.20;99.90;;;;;;5015718;28;20267;-81
2022/01/21 18:27:33;;;;;;;7.00;3.50;;;2.20;99.90;;;;;;5012760;28;20664;-80
2022/01/21 18:30:00;;;;;;;16.23;8.17;;;2.20;99.90;;;;;;5018071;28;20179;-83
2022/01/21 18:32:26;;;;;;;11.60;6.33;;;2.20;99.90;;;;;;5015323;28;20278;-83
2022/01/21 18:34:51;;;;;;;8.23;5.93;;;2.10;99.90;;;;;;4999952;28;20705;-82
2022/01/21 18:37:17;;;;;;;8.03;4.63;;;2.10;99.90;;;;;;4995732;28;20219;-82
2022/01/21 18:39:44;;;;;;;6.70;3.40;;;2.10;99.90;;;;;;5017764;28;20580;-82
2022/01/21 18:42:15;;;;;;;11.87;5.07;;;2.10;99.90;;;;;;5013080;28;20233;-83
2022/01/21 18:44:47;;;;;;;8.50;4.97;;;2.10;99.90;;;;;;5009086;28;20180;-83
2022/01/21 18:47:13;;;;;;;7.60;3.40;;;2.10;99.90;;;;;;5006972;28;20221;-82
2022/01/21 18:49:39;;;;;;;4.43;2.63;;;2.20;99.90;;;;;;4996813;28;20187;-83
2022/01/21 18:52:06;;;;;;;4.20;3.63;;;2.30;99.90;;;;;;5014736;28;20710;-83
2022/01/21 18:54:32;;;;;;;5.47;3.33;;;2.20;99.90;;;;;;5007195;28;20220;-84
2022/01/21 18:56:58;;;;;;;7.77;3.93;;;3.10;99.90;;;;;;5011108;28;20206;-83
2022/01/21 18:59:25;;;;;;;11.20;4.03;;;2.30;99.90;;;;;;5010779;28;20183;-83
2022/01/21 19:01:51;;;;;;;9.40;3.90;;;2.20;99.90;;;;;;5019345;28;20186;-83
2022/01/21 19:04:17;;;;;;;3.70;2.90;;;2.20;99.90;;;;;;5015169;28;20183;-82
2022/01/21 19:06:44;;;;;;;4.77;3.63;;;3.00;99.90;;;;;;5014184;28;20231;-82